createdAt,value
2018-12-12T06:22:37.327Z,0.00
2018-12-12T06:23:34.563Z,4.00
2018-12-12T06:24:31.937Z,4.00
2018-12-12T06:25:31.919Z,0.00
2018-12-12T06:26:37.254Z,4.00
2018-12-12T06:27:31.887Z,4.00
2018-12-12T06:28:31.872Z,4.00
2018-12-12T06:29:31.850Z,4.00
2018-12-12T06:30:31.831Z,4.00
2018-12-12T06:31:31.825Z,4.00
2018-12-12T06:32:31.809Z,8.00
2018-12-12T06:33:31.799Z,8.00
2018-12-12T06:34:31.783Z,8.00
2018-12-12T06:35:31.760Z,12.00
2018-12-12T06:36:31.757Z,16.00
2018-12-12T06:37:31.752Z,16.00
2018-12-12T06:38:31.730Z,20.00
2018-12-12T06:39:31.715Z,24.00
2018-12-12T06:40:31.697Z,28.00
2018-12-12T06:41:31.682Z,32.00
2018-12-12T06:42:31.670Z,40.00
2018-12-12T06:43:31.651Z,44.00
2018-12-12T06:44:31.626Z,52.00
2018-12-12T06:45:31.623Z,56.00
2018-12-12T06:46:31.675Z,64.00
2018-12-12T06:47:31.594Z,76.00
2018-12-12T06:48:31.580Z,88.00
2018-12-12T06:49:31.565Z,100.00
2018-12-12T06:50:31.552Z,112.00
2018-12-12T06:51:31.540Z,128.00
2018-12-12T06:52:31.523Z,144.00
2018-12-12T06:53:31.521Z,160.00
2018-12-12T06:54:31.495Z,176.00
2018-12-12T06:55:31.478Z,200.00
2018-12-12T06:56:31.470Z,220.00
2018-12-12T06:57:31.452Z,244.00
2018-12-12T06:58:31.437Z,268.00
2018-12-12T06:59:31.426Z,292.00
2018-12-12T07:00:31.408Z,316.00
2018-12-12T07:01:31.401Z,344.00
2018-12-12T07:02:31.381Z,376.00
2018-12-12T07:03:31.366Z,404.00
2018-12-12T07:04:31.345Z,440.00
2018-12-12T07:05:31.338Z,472.00
2018-12-12T07:06:31.332Z,504.00
2018-12-12T07:07:31.344Z,540.00
2018-12-12T07:08:31.300Z,580.00
2018-12-12T07:09:31.283Z,624.00
2018-12-12T07:10:31.269Z,664.00
2018-12-12T07:11:31.255Z,724.00
2018-12-12T07:12:31.246Z,784.00
2018-12-12T07:13:35.702Z,844.00
2018-12-12T07:14:31.212Z,892.00
2018-12-12T07:15:31.197Z,944.00
2018-12-12T07:16:31.190Z,988.00
2018-12-12T07:17:31.173Z,1044.00
2018-12-12T07:18:31.200Z,1092.00
2018-12-12T07:19:31.141Z,1148.00
2018-12-12T07:20:31.127Z,1200.00
2018-12-12T07:21:31.114Z,1256.00
2018-12-12T07:22:31.101Z,1312.00
2018-12-12T07:23:31.088Z,1368.00
2018-12-12T07:24:31.067Z,1424.00
2018-12-12T07:25:31.060Z,1476.00
2018-12-12T07:26:31.046Z,1532.00
2018-12-12T07:27:31.023Z,1588.00
2018-12-12T07:28:31.023Z,1644.00
2018-12-12T07:29:31.005Z,1700.00
2018-12-12T07:30:30.998Z,1752.00
2018-12-12T07:31:30.975Z,1804.00
2018-12-12T07:32:30.967Z,1852.00
2018-12-12T07:33:30.947Z,1896.00
2018-12-12T07:34:30.934Z,1940.00
2018-12-12T07:35:32.627Z,1984.00
2018-12-12T07:36:32.584Z,2024.00
2018-12-12T07:37:30.898Z,2060.00
2018-12-12T07:38:30.884Z,2100.00
2018-12-12T07:39:30.868Z,2144.00
2018-12-12T07:40:30.852Z,2188.00
2018-12-12T07:41:30.839Z,2240.00
2018-12-12T07:42:30.828Z,2280.00
2018-12-12T07:43:30.812Z,2324.00
2018-12-12T07:44:30.803Z,2364.00
2018-12-12T07:45:30.789Z,2404.00
2018-12-12T07:46:30.777Z,2444.00
2018-12-12T07:47:30.760Z,2484.00
2018-12-12T07:48:30.743Z,2524.00
2018-12-12T07:49:30.735Z,2572.00
2018-12-12T07:50:30.719Z,2612.00
2018-12-12T07:51:30.715Z,2648.00
2018-12-12T07:52:30.690Z,2684.00
2018-12-12T07:53:30.678Z,2728.00
2018-12-12T07:54:30.668Z,2772.00
2018-12-12T07:55:30.651Z,2816.00
2018-12-12T07:56:30.641Z,2860.00
2018-12-12T07:57:30.627Z,2904.00
2018-12-12T07:58:30.613Z,2948.00
2018-12-12T07:59:30.600Z,2988.00
2018-12-12T08:00:30.585Z,3032.00
2018-12-12T08:01:30.581Z,3072.00
2018-12-12T08:02:30.564Z,3112.00
2018-12-12T08:03:30.552Z,3156.00
2018-12-12T08:04:30.573Z,3208.00
2018-12-12T08:05:30.522Z,3252.00
2018-12-12T08:06:30.513Z,3288.00
2018-12-12T08:07:30.503Z,3332.00
2018-12-12T08:08:30.489Z,3368.00
2018-12-12T08:09:30.477Z,3404.00
2018-12-12T08:10:30.459Z,3444.00
2018-12-12T08:11:30.449Z,3480.00
2018-12-12T08:12:30.445Z,3524.00
2018-12-12T08:13:30.423Z,3560.00
2018-12-12T08:14:30.412Z,3588.00
2018-12-12T08:15:30.399Z,3628.00
2018-12-12T08:16:30.386Z,3660.00
2018-12-12T08:17:30.373Z,3692.00
2018-12-12T08:18:30.361Z,3720.00
2018-12-12T08:19:30.349Z,3748.00
2018-12-12T08:20:30.338Z,3776.00
2018-12-12T08:21:30.321Z,3812.00
2018-12-12T08:22:30.312Z,3848.00
2018-12-12T08:23:30.302Z,3880.00
2018-12-12T08:24:30.290Z,3916.00
2018-12-12T08:25:30.277Z,3960.00
2018-12-12T08:26:30.989Z,4000.00
2018-12-12T08:27:32.569Z,4036.00
2018-12-12T08:28:30.243Z,4072.00
2018-12-12T08:29:30.229Z,4104.00
2018-12-12T08:30:30.220Z,4140.00
2018-12-12T08:31:30.206Z,4172.00
2018-12-12T08:32:30.201Z,4200.00
2018-12-12T08:33:30.184Z,4236.00
2018-12-12T08:34:30.172Z,4276.00
2018-12-12T08:35:30.158Z,4324.00
2018-12-12T08:36:30.145Z,4388.00
2018-12-12T08:37:30.137Z,4484.00
2018-12-12T08:38:30.123Z,4664.00
2018-12-12T08:39:30.112Z,4812.00
2018-12-12T08:40:30.103Z,4980.00
2018-12-12T08:41:30.088Z,5296.00
2018-12-12T08:42:30.084Z,6052.00
2018-12-12T08:43:30.070Z,6700.00
2018-12-12T08:44:30.054Z,6676.00
2018-12-12T08:45:30.043Z,6924.00
2018-12-12T08:46:30.031Z,6824.00
2018-12-12T08:47:30.024Z,6440.00
2018-12-12T08:48:30.011Z,6768.00
2018-12-12T08:49:30.014Z,7480.00
2018-12-12T08:50:29.998Z,7768.00
2018-12-12T08:51:30.018Z,7796.00
2018-12-12T08:52:29.970Z,7900.00
2018-12-12T08:53:29.955Z,8252.00
2018-12-12T08:54:29.950Z,8596.00
2018-12-12T08:55:29.935Z,8324.00
2018-12-12T08:56:29.928Z,7672.00
2018-12-12T08:57:29.921Z,7548.00
2018-12-12T08:58:29.913Z,7904.00
2018-12-12T08:59:29.902Z,7136.00
2018-12-12T09:00:29.890Z,6700.00
2018-12-12T09:01:29.881Z,7312.00
2018-12-12T09:02:29.863Z,8252.00
2018-12-12T09:03:29.864Z,8936.00
2018-12-12T09:04:29.852Z,8732.00
2018-12-12T09:05:29.843Z,8472.00
2018-12-12T09:06:29.891Z,8748.00
2018-12-12T09:07:29.825Z,9532.00
2018-12-12T09:08:29.813Z,10248.00
2018-12-12T09:09:29.808Z,10160.00
2018-12-12T09:10:29.799Z,10528.00
2018-12-12T09:11:29.786Z,9616.00
2018-12-12T09:12:29.780Z,10308.00
2018-12-12T09:13:29.780Z,10248.00
2018-12-12T09:14:29.756Z,8688.00
2018-12-12T09:15:29.744Z,8132.00
2018-12-12T09:16:29.741Z,8324.00
2018-12-12T09:17:29.735Z,8680.00
2018-12-12T09:18:29.729Z,8748.00
2018-12-12T09:19:29.752Z,8928.00
2018-12-12T09:20:29.722Z,8900.00
2018-12-12T09:21:29.697Z,8904.00
2018-12-12T09:22:31.771Z,9248.00
2018-12-12T09:23:29.683Z,9932.00
2018-12-12T09:24:29.675Z,10580.00
2018-12-12T09:25:29.666Z,10964.00
2018-12-12T09:26:29.658Z,10696.00
2018-12-12T09:27:29.649Z,10020.00
2018-12-12T09:28:29.643Z,9584.00
2018-12-12T09:29:29.629Z,9316.00
2018-12-12T09:30:29.622Z,8696.00
2018-12-12T09:31:29.613Z,8600.00
2018-12-12T09:32:29.605Z,8244.00
2018-12-12T09:33:29.598Z,7988.00
2018-12-12T09:34:29.588Z,8344.00
2018-12-12T09:35:29.575Z,8572.00
2018-12-12T09:36:29.573Z,8468.00
2018-12-12T09:37:29.566Z,8380.00
2018-12-12T09:38:29.560Z,8060.00
2018-12-12T09:39:29.552Z,7324.00
2018-12-12T09:40:29.527Z,7096.00
2018-12-12T09:41:29.531Z,7272.00
2018-12-12T09:42:29.524Z,7204.00
2018-12-12T09:43:29.510Z,7200.00
2018-12-12T09:44:29.503Z,7392.00
2018-12-12T09:45:29.497Z,7492.00
2018-12-12T09:46:29.491Z,7480.00
2018-12-12T09:47:29.477Z,7396.00
2018-12-12T09:48:29.468Z,7472.00
2018-12-12T09:49:29.460Z,7572.00
2018-12-12T09:50:29.452Z,7504.00
2018-12-12T09:51:29.442Z,7308.00
2018-12-12T09:52:29.435Z,7156.00
2018-12-12T09:53:29.426Z,6900.00
2018-12-12T09:54:29.412Z,6812.00
2018-12-12T09:55:29.435Z,7060.00
2018-12-12T09:56:29.401Z,7348.00
2018-12-12T09:57:29.391Z,7296.00
2018-12-12T09:58:29.384Z,7172.00
2018-12-12T09:59:29.373Z,7260.00
2018-12-12T10:00:29.362Z,7344.00
2018-12-12T10:01:29.352Z,7104.00
2018-12-12T10:02:29.359Z,7008.00
2018-12-12T10:03:31.351Z,7328.00
2018-12-12T10:04:29.328Z,7652.00
2018-12-12T10:05:29.319Z,7844.00
2018-12-12T10:06:29.314Z,7896.00
2018-12-12T10:07:29.303Z,8164.00
2018-12-12T10:08:29.292Z,8988.00
2018-12-12T10:09:29.287Z,9952.00
2018-12-12T10:10:29.275Z,10780.00
2018-12-12T10:11:29.269Z,10820.00
2018-12-12T10:12:29.259Z,10960.00
2018-12-12T10:13:29.250Z,11280.00
2018-12-12T10:14:29.241Z,11788.00
2018-12-12T10:15:29.232Z,11668.00
2018-12-12T10:16:29.223Z,13168.00
2018-12-12T10:17:29.214Z,12284.00
2018-12-12T10:18:29.205Z,10888.00
2018-12-12T10:19:29.200Z,10912.00
2018-12-12T10:20:29.189Z,10512.00
2018-12-12T10:21:29.181Z,11572.00
2018-12-12T10:22:29.178Z,10416.00
2018-12-12T10:23:29.173Z,10540.00
2018-12-12T10:24:29.156Z,11456.00
2018-12-12T10:25:29.150Z,11640.00
2018-12-12T10:26:29.145Z,11488.00
2018-12-12T10:27:29.134Z,12920.00
2018-12-12T10:28:29.151Z,10972.00
2018-12-12T10:29:29.116Z,13908.00
2018-12-12T10:30:29.120Z,15072.00
2018-12-12T10:31:29.135Z,14644.00
2018-12-12T10:32:29.100Z,14808.00
2018-12-12T10:33:29.092Z,16032.00
2018-12-12T10:34:29.080Z,14472.00
2018-12-12T10:35:29.081Z,15476.00
2018-12-12T10:36:29.075Z,15164.00
2018-12-12T10:37:29.072Z,14628.00
2018-12-12T10:38:29.067Z,14212.00
2018-12-12T10:39:29.066Z,13344.00
2018-12-12T10:40:29.055Z,12012.00
2018-12-12T10:41:29.050Z,9148.00
2018-12-12T10:42:29.053Z,9320.00
2018-12-12T10:43:29.042Z,8988.00
2018-12-12T10:44:29.047Z,8400.00
2018-12-12T10:45:29.033Z,8380.00
2018-12-12T10:46:29.031Z,8116.00
2018-12-12T10:47:29.027Z,8004.00
2018-12-12T10:48:29.019Z,8084.00
2018-12-12T10:49:29.020Z,8180.00
2018-12-12T10:50:29.015Z,8056.00
2018-12-12T10:51:29.013Z,8236.00
2018-12-12T10:52:29.005Z,8704.00
2018-12-12T10:53:29.002Z,8500.00
2018-12-12T10:54:29.023Z,9496.00
2018-12-12T10:55:28.996Z,11152.00
2018-12-12T10:56:28.995Z,11572.00
2018-12-12T10:57:28.989Z,10768.00
2018-12-12T10:58:28.985Z,10760.00
2018-12-12T10:59:28.980Z,11540.00
2018-12-12T11:00:28.977Z,10180.00
2018-12-12T11:01:28.974Z,9552.00
2018-12-12T11:02:28.968Z,9656.00
2018-12-12T11:03:28.967Z,10468.00
2018-12-12T11:04:28.961Z,11160.00
2018-12-12T11:05:28.955Z,10972.00
2018-12-12T11:06:28.958Z,11404.00
2018-12-12T11:07:30.530Z,11952.00
2018-12-12T11:08:28.949Z,11924.00
2018-12-12T11:09:28.951Z,11920.00
2018-12-12T11:10:28.996Z,11344.00
2018-12-12T11:11:28.936Z,10840.00
2018-12-12T11:12:28.935Z,10648.00
2018-12-12T11:13:28.927Z,9836.00
2018-12-12T11:14:28.923Z,9536.00
2018-12-12T11:15:28.917Z,9656.00
2018-12-12T11:16:28.917Z,9744.00
2018-12-12T11:17:28.907Z,9540.00
2018-12-12T11:18:28.904Z,8724.00
2018-12-12T11:19:28.910Z,7816.00
2018-12-12T11:20:28.894Z,6844.00
2018-12-12T11:21:28.902Z,6524.00
2018-12-12T11:22:28.878Z,6228.00
2018-12-12T11:23:28.883Z,6144.00
2018-12-12T11:24:28.877Z,6132.00
2018-12-12T11:25:28.865Z,6724.00
2018-12-12T11:26:28.875Z,6980.00
2018-12-12T11:27:28.855Z,6828.00
2018-12-12T11:28:28.849Z,7324.00
2018-12-12T11:29:28.835Z,6808.00
2018-12-12T11:30:28.831Z,7648.00
2018-12-12T11:31:28.830Z,7372.00
2018-12-12T11:32:28.824Z,7424.00
2018-12-12T11:33:28.819Z,7444.00
2018-12-12T11:34:28.820Z,7280.00
2018-12-12T11:35:28.815Z,7160.00
2018-12-12T11:36:28.801Z,7172.00
2018-12-12T11:37:28.796Z,7084.00
2018-12-12T11:38:28.792Z,7056.00
2018-12-12T11:39:28.784Z,7024.00
2018-12-12T11:40:28.779Z,7064.00
2018-12-12T11:41:28.771Z,7052.00
2018-12-12T11:42:28.767Z,7032.00
2018-12-12T11:43:28.762Z,7016.00
2018-12-12T11:44:28.754Z,7008.00
2018-12-12T11:45:28.770Z,6976.00
2018-12-12T11:46:28.745Z,6992.00
2018-12-12T11:47:28.735Z,7024.00
2018-12-12T11:48:28.729Z,7000.00
2018-12-12T11:49:28.730Z,6936.00
2018-12-12T11:50:28.722Z,7032.00
2018-12-12T11:51:28.716Z,6988.00
2018-12-12T11:52:28.712Z,6948.00
2018-12-12T11:53:28.712Z,6884.00
2018-12-12T11:54:28.701Z,6852.00
2018-12-12T11:55:28.690Z,6932.00
2018-12-12T11:56:28.691Z,6944.00
2018-12-12T11:57:28.688Z,6924.00
2018-12-12T11:58:28.684Z,6956.00
2018-12-12T11:59:28.674Z,6832.00
2018-12-12T12:00:28.715Z,6724.00
2018-12-12T12:01:30.587Z,6744.00
2018-12-12T12:02:28.662Z,6896.00
2018-12-12T12:03:28.656Z,6832.00
2018-12-12T12:04:28.654Z,6748.00
2018-12-12T12:05:28.649Z,6560.00
2018-12-12T12:06:28.643Z,6660.00
2018-12-12T12:07:28.638Z,6736.00
2018-12-12T12:08:28.628Z,6944.00
2018-12-12T12:09:28.631Z,6824.00
2018-12-12T12:10:28.683Z,6948.00
2018-12-12T12:11:28.614Z,6968.00
2018-12-12T12:12:28.613Z,4716.00
2018-12-12T12:13:28.602Z,5408.00
2018-12-12T12:14:28.611Z,6148.00
2018-12-12T12:15:28.593Z,5732.00
2018-12-12T12:16:28.587Z,5020.00
2018-12-12T12:17:28.587Z,4464.00
2018-12-12T12:18:28.578Z,4456.00
2018-12-12T12:19:28.577Z,4428.00
2018-12-12T12:20:28.564Z,4688.00
2018-12-12T12:21:28.561Z,5160.00
2018-12-12T12:22:28.560Z,4196.00
2018-12-12T12:23:28.549Z,4196.00
2018-12-12T12:24:28.538Z,4344.00
2018-12-12T12:25:28.536Z,4436.00
2018-12-12T12:26:28.525Z,4868.00
2018-12-12T12:27:28.519Z,5592.00
2018-12-12T12:28:28.565Z,6324.00
2018-12-12T12:29:28.502Z,5992.00
2018-12-12T12:30:28.495Z,5788.00
2018-12-12T12:31:28.486Z,5584.00
2018-12-12T12:32:28.479Z,5444.00
2018-12-12T12:33:28.474Z,5076.00
2018-12-12T12:34:28.465Z,4708.00
2018-12-12T12:35:28.450Z,4400.00
2018-12-12T12:36:28.450Z,4308.00
2018-12-12T12:37:28.445Z,4244.00
2018-12-12T12:38:28.435Z,4036.00
2018-12-12T12:39:28.429Z,3924.00
2018-12-12T12:40:28.435Z,3920.00
2018-12-12T12:41:28.416Z,3932.00
2018-12-12T12:42:28.411Z,3900.00
2018-12-12T12:43:28.395Z,3880.00
2018-12-12T12:44:28.414Z,3888.00
2018-12-12T12:45:29.205Z,3868.00
2018-12-12T12:46:28.373Z,3840.00
2018-12-12T12:47:28.363Z,3856.00
2018-12-12T12:48:28.355Z,3868.00
2018-12-12T12:49:28.343Z,3840.00
2018-12-12T12:50:28.335Z,3844.00
2018-12-12T12:51:28.328Z,3868.00
2018-12-12T12:52:28.317Z,3888.00
2018-12-12T12:53:28.316Z,3884.00
2018-12-12T12:54:28.299Z,3864.00
2018-12-12T12:55:28.287Z,3848.00
2018-12-12T12:56:28.278Z,3852.00
2018-12-12T12:57:28.276Z,3864.00
2018-12-12T12:58:28.264Z,3852.00
2018-12-12T12:59:28.252Z,3864.00
2018-12-12T13:00:28.242Z,3896.00
2018-12-12T13:01:28.225Z,3888.00
2018-12-12T13:02:28.224Z,3876.00
2018-12-12T13:03:28.210Z,3888.00
2018-12-12T13:04:28.204Z,3896.00
2018-12-12T13:05:28.197Z,3888.00
2018-12-12T13:06:28.187Z,3908.00
2018-12-12T13:07:28.212Z,3880.00
2018-12-12T13:08:28.197Z,3908.00
2018-12-12T13:09:28.158Z,3916.00
2018-12-12T13:10:28.155Z,3908.00
2018-12-12T13:11:30.971Z,3900.00
2018-12-12T13:12:28.133Z,3880.00
2018-12-12T13:13:28.247Z,3852.00
2018-12-12T13:14:28.115Z,3872.00
2018-12-12T13:15:28.101Z,3888.00
2018-12-12T13:16:28.094Z,3880.00
2018-12-12T13:17:28.079Z,3848.00
2018-12-12T13:18:28.069Z,3816.00
2018-12-12T13:19:28.061Z,3836.00
2018-12-12T13:20:28.048Z,3836.00
2018-12-12T13:21:28.039Z,3836.00
2018-12-12T13:22:28.028Z,3840.00
2018-12-12T13:23:28.023Z,3844.00
2018-12-12T13:24:28.010Z,3848.00
2018-12-12T13:25:27.999Z,3856.00
2018-12-12T13:26:27.991Z,3828.00
2018-12-12T13:27:27.977Z,3840.00
2018-12-12T13:28:27.969Z,3804.00
2018-12-12T13:29:27.960Z,3812.00
2018-12-12T13:30:27.950Z,3820.00
2018-12-12T13:31:27.940Z,3868.00
2018-12-12T13:32:27.932Z,3816.00
2018-12-12T13:33:27.919Z,3820.00
2018-12-12T13:34:27.908Z,3832.00
2018-12-12T13:35:27.900Z,3836.00
2018-12-12T13:36:27.939Z,3932.00
2018-12-12T13:37:27.887Z,4004.00
2018-12-12T13:38:27.871Z,4080.00
2018-12-12T13:39:27.863Z,4344.00
2018-12-12T13:40:27.871Z,4060.00
2018-12-12T13:41:27.844Z,4668.00
2018-12-12T13:42:27.831Z,5000.00
2018-12-12T13:43:27.827Z,5428.00
2018-12-12T13:44:27.816Z,5940.00
2018-12-12T13:45:27.806Z,5484.00
2018-12-12T13:46:27.792Z,5688.00
2018-12-12T13:47:27.778Z,5476.00
2018-12-12T13:48:27.771Z,6148.00
2018-12-12T13:49:27.762Z,5712.00
2018-12-12T13:50:27.756Z,4500.00
2018-12-12T13:51:27.745Z,4220.00
2018-12-12T13:52:27.734Z,4220.00
2018-12-12T13:53:27.734Z,4348.00
2018-12-12T13:54:27.715Z,4028.00
2018-12-12T13:55:27.703Z,3964.00
2018-12-12T13:56:27.696Z,4076.00
2018-12-12T13:57:27.759Z,3840.00
2018-12-12T13:58:27.676Z,3532.00
2018-12-12T13:59:27.669Z,3684.00
2018-12-12T14:00:27.660Z,4364.00
2018-12-12T14:01:30.113Z,4372.00
2018-12-12T14:02:27.642Z,3888.00
2018-12-12T14:03:27.630Z,3588.00
2018-12-12T14:04:27.617Z,3232.00
2018-12-12T14:05:27.614Z,3352.00
2018-12-12T14:06:27.610Z,3400.00
2018-12-12T14:07:27.598Z,3360.00
2018-12-12T14:08:27.583Z,3292.00
2018-12-12T14:09:27.580Z,3424.00
2018-12-12T14:10:27.564Z,3284.00
2018-12-12T14:11:27.554Z,3416.00
2018-12-12T14:12:27.548Z,3152.00
2018-12-12T14:13:27.534Z,3144.00
2018-12-12T14:14:27.525Z,3656.00
2018-12-12T14:15:27.518Z,4096.00
2018-12-12T14:16:27.503Z,4392.00
2018-12-12T14:17:27.499Z,4116.00
2018-12-12T14:18:27.504Z,4196.00
2018-12-12T14:19:27.473Z,4656.00
2018-12-12T14:20:27.468Z,4552.00
2018-12-12T14:21:27.458Z,5020.00
2018-12-12T14:22:27.445Z,3976.00
2018-12-12T14:23:27.433Z,2896.00
2018-12-12T14:24:27.426Z,2556.00
2018-12-12T14:25:27.416Z,2572.00
2018-12-12T14:26:27.405Z,3000.00
2018-12-12T14:27:27.395Z,3324.00
2018-12-12T14:28:27.384Z,3320.00
2018-12-12T14:29:27.372Z,3604.00
2018-12-12T14:30:27.361Z,3276.00
2018-12-12T14:31:27.356Z,3516.00
2018-12-12T14:32:27.342Z,3824.00
2018-12-12T14:33:27.338Z,3800.00
2018-12-12T14:34:29.373Z,3496.00
2018-12-12T14:35:27.317Z,3456.00
2018-12-12T14:36:27.302Z,3096.00
2018-12-12T14:37:27.295Z,2972.00
2018-12-12T14:38:27.286Z,2744.00
2018-12-12T14:39:27.276Z,2648.00
2018-12-12T14:40:27.265Z,2724.00
2018-12-12T14:41:27.249Z,2372.00
2018-12-12T14:42:27.246Z,2128.00
2018-12-12T14:43:27.234Z,1992.00
2018-12-12T14:44:27.224Z,1924.00
2018-12-12T14:45:27.213Z,1880.00
2018-12-12T14:46:27.192Z,1848.00
2018-12-12T14:47:27.192Z,1812.00
2018-12-12T14:48:30.285Z,1792.00
2018-12-12T14:49:27.171Z,1756.00
2018-12-12T14:50:27.165Z,1740.00
2018-12-12T14:51:27.157Z,1724.00
2018-12-12T14:52:27.140Z,1692.00
2018-12-12T14:53:27.126Z,1656.00
2018-12-12T14:54:27.157Z,1624.00
2018-12-12T14:55:27.109Z,1604.00
2018-12-12T14:56:27.100Z,1572.00
2018-12-12T14:57:29.831Z,1536.00
2018-12-12T14:58:27.077Z,1500.00
2018-12-12T14:59:27.062Z,1460.00
2018-12-12T15:00:27.053Z,1428.00
2018-12-12T15:01:27.045Z,1400.00
2018-12-12T15:02:27.055Z,1380.00
2018-12-12T15:03:27.019Z,1340.00
2018-12-12T15:04:27.001Z,1300.00
2018-12-12T15:05:26.999Z,1284.00
2018-12-12T15:06:26.986Z,1244.00
2018-12-12T15:07:26.978Z,1192.00
2018-12-12T15:08:26.967Z,1136.00
2018-12-12T15:09:26.958Z,1076.00
2018-12-12T15:10:26.943Z,1032.00
2018-12-12T15:11:26.933Z,992.00
2018-12-12T15:12:26.937Z,952.00
2018-12-12T15:13:26.911Z,912.00
2018-12-12T15:14:26.898Z,868.00
2018-12-12T15:15:26.887Z,828.00
2018-12-12T15:16:26.873Z,788.00
2018-12-12T15:17:26.865Z,748.00
2018-12-12T15:18:26.856Z,708.00
2018-12-12T15:19:26.840Z,672.00
2018-12-12T15:20:26.831Z,636.00
2018-12-12T15:21:26.820Z,600.00
2018-12-12T15:22:26.806Z,564.00
2018-12-12T15:23:26.793Z,528.00
2018-12-12T15:24:26.784Z,492.00
2018-12-12T15:25:26.779Z,464.00
2018-12-12T15:26:26.765Z,428.00
2018-12-12T15:27:26.744Z,396.00
2018-12-12T15:28:26.740Z,368.00
2018-12-12T15:29:26.732Z,340.00
2018-12-12T15:30:26.718Z,312.00
2018-12-12T15:31:26.705Z,288.00
2018-12-12T15:32:26.695Z,260.00
2018-12-12T15:33:26.681Z,236.00
2018-12-12T15:34:26.665Z,212.00
2018-12-12T15:35:26.661Z,192.00
2018-12-12T15:36:26.646Z,172.00
2018-12-12T15:37:26.637Z,152.00
2018-12-12T15:38:26.620Z,140.00
2018-12-12T15:39:26.612Z,120.00
2018-12-12T15:40:26.599Z,108.00
2018-12-12T15:41:26.591Z,92.00
2018-12-12T15:42:26.577Z,80.00
2018-12-12T15:43:26.568Z,72.00
2018-12-12T15:44:26.560Z,60.00
2018-12-12T15:45:26.541Z,52.00
2018-12-12T15:46:26.531Z,44.00
2018-12-12T15:47:26.522Z,40.00
2018-12-12T15:48:26.506Z,32.00
2018-12-12T15:49:26.498Z,28.00
2018-12-12T15:50:26.484Z,20.00
2018-12-12T15:51:26.475Z,20.00
2018-12-12T15:52:26.460Z,16.00
2018-12-12T15:53:26.471Z,12.00
2018-12-12T15:54:26.448Z,12.00
2018-12-12T15:55:27.062Z,8.00
2018-12-12T15:56:26.413Z,8.00
2018-12-12T15:57:26.408Z,8.00
2018-12-12T15:58:26.404Z,8.00
2018-12-12T15:59:26.383Z,4.00
2018-12-12T16:00:26.368Z,4.00
2018-12-12T16:01:26.353Z,4.00
2018-12-12T16:02:26.343Z,4.00
2018-12-12T16:03:26.337Z,0.00
2018-12-12T16:04:26.327Z,4.00
2018-12-12T16:05:27.066Z,0.00
2018-12-12T16:06:26.291Z,0.00
2018-12-12T16:07:26.287Z,0.00
2018-12-12T16:08:26.280Z,0.00
2018-12-12T16:09:26.263Z,0.00
2018-12-12T16:10:26.249Z,0.00
2018-12-12T16:11:26.232Z,0.00
2018-12-12T16:12:26.227Z,0.00
2018-12-12T16:13:26.215Z,0.00
2018-12-12T16:14:26.199Z,0.00
2018-12-12T16:15:26.199Z,0.00
2018-12-12T16:16:26.186Z,0.00
2018-12-12T16:17:26.169Z,0.00
2018-12-12T16:18:26.156Z,0.00
2018-12-12T16:19:26.165Z,0.00
2018-12-12T16:20:26.133Z,0.00
2018-12-12T16:21:26.119Z,0.00
2018-12-12T16:22:26.115Z,0.00
2018-12-12T16:23:26.100Z,0.00
2018-12-12T16:24:26.121Z,0.00
2018-12-12T16:25:26.077Z,0.00
2018-12-12T16:26:26.064Z,0.00
2018-12-12T16:27:26.051Z,0.00
2018-12-12T16:28:26.033Z,0.00
2018-12-12T16:29:26.024Z,0.00
2018-12-12T16:30:26.011Z,0.00
2018-12-12T16:31:25.998Z,0.00
2018-12-12T16:32:26.004Z,0.00
2018-12-12T16:33:25.970Z,0.00
2018-12-12T16:34:25.960Z,0.00
2018-12-12T16:35:25.954Z,0.00
2018-12-12T16:36:25.946Z,0.00
2018-12-12T16:37:25.921Z,0.00
2018-12-12T16:38:25.914Z,0.00
2018-12-12T16:39:25.914Z,0.00
2018-12-12T16:40:25.885Z,0.00
2018-12-12T16:41:25.886Z,0.00
2018-12-12T16:42:25.867Z,0.00
2018-12-12T16:43:25.857Z,0.00
2018-12-12T16:44:25.863Z,0.00
2018-12-12T16:45:25.835Z,0.00
2018-12-12T16:46:25.828Z,0.00
2018-12-12T16:47:25.811Z,0.00
2018-12-12T16:48:25.800Z,0.00
2018-12-12T16:49:25.785Z,0.00
2018-12-12T16:50:25.778Z,0.00
2018-12-12T16:51:25.761Z,0.00
2018-12-12T16:52:25.748Z,0.00
2018-12-12T16:53:25.734Z,0.00
2018-12-12T16:55:25.708Z,0.00
2018-12-12T16:56:25.698Z,0.00
2018-12-12T16:57:25.687Z,0.00
2018-12-12T16:58:25.677Z,0.00
2018-12-12T16:59:25.661Z,0.00
2018-12-12T17:00:25.649Z,0.00
2018-12-12T17:01:46.645Z,0.00
2018-12-12T17:02:25.624Z,0.00
2018-12-12T17:03:25.609Z,0.00
2018-12-12T17:04:25.598Z,0.00
2018-12-12T17:05:25.590Z,0.00
2018-12-12T17:06:25.578Z,0.00
2018-12-12T17:07:46.562Z,0.00
2018-12-12T17:08:25.559Z,0.00
2018-12-12T17:09:25.552Z,0.00
2018-12-12T17:10:25.531Z,0.00
2018-12-12T17:11:25.515Z,0.00
2018-12-12T17:12:25.502Z,0.00
2018-12-12T17:13:46.501Z,0.00
2018-12-12T17:14:25.481Z,0.00
2018-12-12T17:15:25.465Z,0.00
2018-12-12T17:16:25.449Z,0.00
2018-12-12T17:17:25.441Z,0.00
2018-12-12T17:18:25.442Z,0.00
2018-12-12T17:19:46.443Z,0.00
2018-12-12T17:20:25.410Z,0.00
2018-12-12T17:21:25.394Z,0.00
2018-12-12T17:22:25.384Z,0.00
2018-12-12T17:23:25.365Z,0.00
2018-12-12T17:24:25.351Z,0.00
2018-12-12T17:25:46.353Z,0.00
2018-12-12T17:26:25.332Z,0.00
2018-12-12T17:27:25.321Z,0.00
2018-12-12T17:28:25.345Z,0.00
2018-12-12T17:29:25.315Z,0.00
2018-12-12T17:30:26.104Z,0.00
2018-12-12T17:31:46.315Z,0.00
2018-12-12T17:32:25.340Z,0.00
2018-12-12T17:33:25.248Z,0.00
2018-12-12T17:34:25.237Z,0.00
2018-12-12T17:35:25.276Z,0.00
2018-12-12T17:36:25.206Z,0.00
2018-12-12T17:37:46.202Z,0.00
2018-12-12T17:38:25.191Z,0.00
2018-12-12T17:39:26.101Z,0.00
2018-12-12T17:40:25.170Z,0.00
2018-12-12T17:41:25.144Z,0.00
2018-12-12T17:42:25.125Z,0.00
2018-12-12T17:43:46.129Z,0.00
2018-12-12T17:44:25.102Z,0.00
2018-12-12T17:45:25.098Z,0.00
2018-12-12T17:46:25.116Z,0.00
2018-12-12T17:47:25.084Z,0.00
2018-12-12T17:48:25.055Z,0.00
2018-12-12T17:49:46.075Z,0.00
2018-12-12T17:50:25.032Z,0.00
2018-12-12T17:51:25.024Z,0.00
2018-12-12T17:52:25.012Z,0.00
2018-12-12T17:53:24.994Z,0.00
2018-12-12T17:54:24.984Z,0.00
2018-12-12T17:55:45.966Z,0.00
2018-12-12T17:56:24.961Z,0.00
2018-12-12T17:57:24.945Z,0.00
2018-12-12T17:58:24.930Z,0.00
2018-12-12T17:59:24.917Z,0.00
2018-12-12T18:00:24.906Z,0.00
2018-12-12T18:01:45.902Z,0.00
2018-12-12T18:02:24.878Z,0.00
2018-12-12T18:03:24.867Z,0.00
2018-12-12T18:04:24.853Z,0.00
2018-12-12T18:05:24.855Z,0.00
2018-12-12T18:06:24.830Z,0.00
2018-12-12T18:07:45.840Z,0.00
2018-12-12T18:08:24.802Z,0.00
2018-12-12T18:09:24.794Z,0.00
2018-12-12T18:10:24.780Z,0.00
2018-12-12T18:11:24.765Z,0.00
2018-12-12T18:12:24.749Z,0.00
2018-12-12T18:13:45.746Z,0.00
2018-12-12T18:14:25.676Z,0.00
2018-12-12T18:15:24.734Z,0.00
2018-12-12T18:16:24.708Z,0.00
2018-12-12T18:17:24.695Z,0.00
2018-12-12T18:18:24.684Z,0.00
2018-12-12T18:19:45.678Z,0.00
2018-12-12T18:20:24.683Z,0.00
2018-12-12T18:21:25.185Z,0.00
2018-12-12T18:22:24.630Z,0.00
2018-12-12T18:23:24.619Z,0.00
2018-12-12T18:24:24.608Z,0.00
2018-12-12T18:26:24.599Z,0.00
2018-12-12T18:27:24.578Z,0.00
2018-12-12T18:28:24.556Z,0.00
2018-12-12T18:29:24.551Z,0.00
2018-12-12T18:30:24.547Z,0.00
2018-12-12T18:32:56.604Z,0.00
2018-12-12T18:33:56.583Z,0.00
2018-12-12T18:35:50.131Z,0.00
2018-12-12T18:36:50.114Z,0.00
2018-12-12T18:37:50.108Z,0.00
2018-12-12T18:38:50.095Z,0.00
2018-12-12T18:39:50.080Z,0.00
2018-12-12T18:40:50.065Z,0.00
2018-12-12T18:41:50.054Z,0.00
2018-12-12T18:42:50.043Z,0.00
2018-12-12T18:43:50.034Z,0.00
2018-12-12T18:44:50.024Z,0.00
2018-12-12T18:45:50.003Z,0.00
2018-12-12T18:46:49.986Z,0.00
2018-12-12T18:47:49.975Z,0.00
2018-12-12T18:48:49.966Z,0.00
2018-12-12T18:49:49.954Z,0.00
2018-12-12T18:50:49.944Z,0.00